Time;durP1;ratioP1;P1;durP2;ratioP2;P2;SDS_P1;SDS_P2;PMS_P1;PMS_P2;Temp;Humidity;BMP_temperature;BMP_pressure;BME280_temperature;BME280_humidity;BME280_pressure;Samples;Min_cycle;Max_cycle;Signal;HPM_P1;HPM_P2
2022/10/26 00:01:24;;;;;;;114.43;108.37;;;13.10;99.90;;;;;;5049301;28;20444;-58
2022/10/26 00:03:49;;;;;;;104.45;98.90;;;13.00;99.90;;;;;;5047832;28;20407;-58
2022/10/26 00:06:18;;;;;;;112.97;106.97;;;13.00;99.90;;;;;;5049653;28;20417;-57
2022/10/26 00:08:43;;;;;;;113.50;107.53;;;13.00;99.90;;;;;;5049389;28;20388;-57
2022/10/26 00:11:10;;;;;;;111.60;105.70;;;12.90;99.90;;;;;;5050065;28;20437;-57
2022/10/26 00:13:37;;;;;;;117.93;111.80;;;12.90;99.90;;;;;;5051048;28;20384;-56
2022/10/26 00:16:19;;;;;;;115.93;109.93;;;12.90;99.90;;;;;;5046184;28;20750;-56
2022/10/26 00:18:44;;;;;;;124.30;117.72;;;12.80;99.90;;;;;;5049419;28;20472;-55
2022/10/26 00:21:11;;;;;;;124.85;118.55;;;12.70;99.90;;;;;;5046175;28;20541;-55
2022/10/26 00:23:37;;;;;;;125.28;118.85;;;12.70;99.90;;;;;;5047321;28;20404;-57
2022/10/26 00:26:03;;;;;;;126.53;120.03;;;12.80;99.90;;;;;;5047190;28;20556;-58
2022/10/26 00:28:31;;;;;;;129.17;122.47;;;12.70;99.90;;;;;;5043942;28;20732;-57
2022/10/26 00:31:02;;;;;;;129.30;122.40;;;12.70;99.90;;;;;;5044317;28;20444;-57
2022/10/26 00:33:29;;;;;;;127.15;120.38;;;12.70;99.90;;;;;;5043411;28;20454;-55
2022/10/26 00:35:54;;;;;;;126.70;120.07;;;12.70;99.90;;;;;;5051601;28;20402;-53
2022/10/26 00:38:21;;;;;;;125.82;119.32;;;12.70;99.90;;;;;;5050636;28;20560;-55
2022/10/26 00:40:47;;;;;;;120.70;114.50;;;12.70;99.90;;;;;;5050567;28;20677;-57
2022/10/26 00:43:32;;;;;;;130.15;123.22;;;12.60;99.90;;;;;;5067440;28;20383;-58
2022/10/26 00:46:00;;;;;;;123.97;117.57;;;12.60;99.90;;;;;;5049510;28;20399;-56
2022/10/26 00:48:32;;;;;;;124.72;118.15;;;12.60;99.90;;;;;;5068114;28;20383;-54
2022/10/26 00:51:01;;;;;;;124.70;118.13;;;12.60;99.90;;;;;;5053662;28;20594;-54
2022/10/26 00:53:28;;;;;;;116.70;110.70;;;12.60;99.90;;;;;;5052596;28;20388;-55
2022/10/26 00:55:55;;;;;;;115.65;109.45;;;12.60;99.90;;;;;;5052858;28;20883;-55
2022/10/26 00:58:23;;;;;;;119.03;112.78;;;12.60;99.90;;;;;;5053539;28;20822;-53
2022/10/26 01:00:50;;;;;;;124.22;117.70;;;12.50;99.90;;;;;;5054841;28;20399;-58
2022/10/26 01:03:16;;;;;;;133.90;126.90;;;12.50;99.90;;;;;;5050946;28;20682;-58
2022/10/26 01:09:04;;;;;;;132.97;125.93;;;12.50;99.90;;;;;;5070351;28;20640;-58
2022/10/26 01:11:30;;;;;;;140.80;133.43;;;12.50;99.90;;;;;;5069655;28;20689;-56
2022/10/26 01:13:58;;;;;;;142.45;135.00;;;12.40;99.90;;;;;;5051451;28;20395;-57
2022/10/26 01:17:01;;;;;;;139.38;131.95;;;12.40;99.90;;;;;;5050375;28;20392;-58
2022/10/26 01:19:52;;;;;;;137.93;130.77;;;12.40;99.90;;;;;;5049315;28;20508;-55
2022/10/26 01:22:31;;;;;;;143.57;136.00;;;12.40;99.90;;;;;;5043769;28;20457;-57
2022/10/26 01:25:26;;;;;;;156.55;148.25;;;12.40;99.90;;;;;;5048225;28;20689;-57
2022/10/26 01:27:52;;;;;;;155.02;146.70;;;12.30;99.90;;;;;;5047155;28;20418;-54
2022/10/26 01:30:27;;;;;;;161.13;152.88;;;12.30;99.90;;;;;;5047708;28;20396;-57
2022/10/26 01:33:04;;;;;;;155.13;146.90;;;12.30;99.90;;;;;;5049385;28;20387;-58
2022/10/26 01:35:58;;;;;;;165.55;156.75;;;12.30;99.90;;;;;;5066270;28;20383;-57
2022/10/26 01:38:45;;;;;;;175.73;166.70;;;12.30;99.90;;;;;;5049987;28;20444;-58
2022/10/26 01:41:21;;;;;;;168.90;159.93;;;12.30;99.90;;;;;;5067954;28;20480;-56
2022/10/26 01:44:01;;;;;;;168.15;159.15;;;12.30;99.90;;;;;;5049595;28;20696;-58
2022/10/26 01:46:33;;;;;;;172.50;163.68;;;12.20;99.90;;;;;;5050603;28;20439;-55
2022/10/26 01:49:05;;;;;;;169.07;160.00;;;12.20;99.90;;;;;;5050138;28;20584;-56
2022/10/26 01:51:31;;;;;;;161.80;153.38;;;12.20;99.90;;;;;;5048938;28;20395;-57
2022/10/26 01:53:57;;;;;;;162.77;154.27;;;12.20;99.90;;;;;;5047362;28;20371;-58
2022/10/26 01:56:27;;;;;;;175.50;166.55;;;12.20;99.90;;;;;;5065564;28;20470;-58
2022/10/26 01:59:05;;;;;;;167.07;158.50;;;12.10;99.90;;;;;;5065614;28;20657;-55
2022/10/26 02:01:30;;;;;;;184.07;174.63;;;12.10;99.90;;;;;;5065938;28;20394;-57
2022/10/26 02:04:05;;;;;;;175.00;165.77;;;12.10;99.90;;;;;;5047266;28;20380;-56
2022/10/26 02:06:39;;;;;;;178.32;169.02;;;12.10;99.90;;;;;;5050571;28;20396;-58
2022/10/26 02:09:59;;;;;;;184.37;174.83;;;12.10;99.90;;;;;;5051954;28;20383;-57
2022/10/26 02:12:32;;;;;;;185.03;175.37;;;12.00;99.90;;;;;;4968780;28;20544;-56
2022/10/26 02:15:03;;;;;;;189.93;180.10;;;11.90;99.90;;;;;;4970314;28;20387;-57
2022/10/26 02:17:49;;;;;;;200.77;190.13;;;11.90;99.90;;;;;;5020058;28;20384;-58
2022/10/26 02:20:40;;;;;;;195.30;185.07;;;11.90;99.90;;;;;;5056081;28;20383;-56
2022/10/26 02:23:08;;;;;;;190.95;180.95;;;11.90;99.90;;;;;;5055971;28;20390;-54
2022/10/26 02:25:43;;;;;;;191.93;181.95;;;11.90;99.90;;;;;;5055308;28;20904;-58
2022/10/26 02:28:12;;;;;;;198.65;188.32;;;11.90;99.90;;;;;;5054348;28;20664;-58
2022/10/26 02:30:40;;;;;;;194.90;184.70;;;11.90;99.90;;;;;;5073139;28;20445;-57
2022/10/26 02:33:09;;;;;;;201.00;190.70;;;11.90;99.90;;;;;;5074884;28;20447;-58
2022/10/26 02:35:38;;;;;;;190.15;180.38;;;11.90;99.90;;;;;;5057134;28;20533;-58
2022/10/26 02:38:08;;;;;;;189.87;179.90;;;11.90;99.90;;;;;;5075474;28;20524;-57
2022/10/26 02:40:35;;;;;;;194.55;184.68;;;11.90;99.90;;;;;;5058879;28;20955;-58
2022/10/26 02:43:07;;;;;;;189.60;179.68;;;11.80;99.90;;;;;;5058909;28;20404;-58
2022/10/26 02:45:43;;;;;;;193.57;183.37;;;11.80;99.90;;;;;;5058381;28;20600;-56
2022/10/26 02:48:08;;;;;;;196.40;186.27;;;11.80;99.90;;;;;;5057533;28;20380;-58
2022/10/26 02:50:47;;;;;;;195.00;184.95;;;11.80;99.90;;;;;;5056803;28;20434;-57
2022/10/26 02:53:39;;;;;;;195.10;184.93;;;11.70;99.90;;;;;;5056585;28;20881;-58
2022/10/26 02:56:18;;;;;;;200.52;189.93;;;11.70;99.90;;;;;;5055821;28;20811;-57
2022/10/26 02:58:48;;;;;;;203.15;192.75;;;11.70;99.90;;;;;;5058027;28;20439;-58
2022/10/26 03:01:14;;;;;;;194.75;184.95;;;11.70;99.90;;;;;;5057815;28;20463;-58
2022/10/26 03:03:40;;;;;;;206.10;195.40;;;11.70;99.90;;;;;;5076534;28;20499;-58
2022/10/26 03:06:06;;;;;;;197.00;186.20;;;11.70;99.90;;;;;;5075489;28;20414;-57
2022/10/26 03:08:32;;;;;;;190.18;180.20;;;11.50;99.90;;;;;;5057111;28;20410;-56
2022/10/26 03:10:57;;;;;;;183.43;173.80;;;11.50;99.90;;;;;;5056128;28;20628;-58
2022/10/26 03:13:23;;;;;;;193.53;183.47;;;11.50;99.90;;;;;;5055669;28;20410;-56
2022/10/26 03:15:48;;;;;;;184.13;174.77;;;11.50;99.90;;;;;;5055719;28;20463;-58
2022/10/26 03:18:14;;;;;;;183.48;174.02;;;11.50;99.90;;;;;;5054363;28;20452;-55
2022/10/26 03:20:44;;;;;;;177.40;168.10;;;11.50;99.90;;;;;;5053617;28;20825;-58
2022/10/26 03:23:09;;;;;;;156.82;148.77;;;11.40;99.90;;;;;;5053986;28;20783;-57
2022/10/26 03:25:35;;;;;;;158.17;149.83;;;11.40;99.90;;;;;;5054278;28;20410;-57
2022/10/26 03:28:02;;;;;;;171.30;162.30;;;11.40;99.90;;;;;;5072173;28;20395;-58
2022/10/26 03:30:29;;;;;;;171.95;163.00;;;11.50;99.90;;;;;;5072552;28;20383;-58
2022/10/26 03:32:55;;;;;;;173.25;164.27;;;11.50;99.90;;;;;;5054008;28;20780;-58
2022/10/26 03:35:21;;;;;;;182.02;172.63;;;11.50;99.90;;;;;;5054003;28;20380;-58
2022/10/26 03:37:47;;;;;;;170.68;161.88;;;11.50;99.90;;;;;;5052152;28;20689;-58
2022/10/26 03:40:13;;;;;;;190.30;180.30;;;11.50;99.90;;;;;;5052311;28;20805;-58
2022/10/26 03:42:39;;;;;;;195.43;185.23;;;11.50;99.90;;;;;;5052175;28;20735;-58
2022/10/26 03:45:06;;;;;;;194.15;184.10;;;11.50;99.90;;;;;;5051732;28;20412;-57
2022/10/26 03:47:32;;;;;;;196.55;186.25;;;11.50;99.90;;;;;;5053214;28;20443;-56
2022/10/26 03:49:58;;;;;;;200.37;190.03;;;11.50;99.90;;;;;;5052371;28;20758;-58
2022/10/26 03:52:23;;;;;;;199.18;188.75;;;11.50;99.90;;;;;;5049589;28;20392;-57
2022/10/26 03:54:49;;;;;;;209.00;197.77;;;11.40;99.90;;;;;;5050749;28;20389;-57
2022/10/26 03:57:15;;;;;;;209.82;198.75;;;11.40;99.90;;;;;;5052094;28;20743;-56
2022/10/26 03:59:41;;;;;;;197.67;187.00;;;11.30;99.90;;;;;;5050949;28;20381;-57
2022/10/26 04:02:06;;;;;;;195.77;185.37;;;11.30;99.90;;;;;;5048910;28;20451;-56
2022/10/26 04:04:35;;;;;;;189.73;179.73;;;11.20;99.90;;;;;;5049536;28;20393;-57
2022/10/26 04:07:00;;;;;;;184.45;174.75;;;11.20;99.90;;;;;;5051227;28;20405;-58
2022/10/26 04:09:26;;;;;;;178.67;169.10;;;11.20;99.90;;;;;;5051639;28;20397;-58
2022/10/26 04:11:52;;;;;;;174.23;164.93;;;11.10;99.90;;;;;;5051032;28;20453;-57
2022/10/26 04:14:17;;;;;;;152.25;143.77;;;11.10;99.90;;;;;;5052968;28;20476;-59
2022/10/26 04:16:43;;;;;;;145.60;137.63;;;11.10;99.90;;;;;;5050956;28;20390;-56
2022/10/26 04:19:08;;;;;;;138.27;131.07;;;11.10;99.90;;;;;;5049136;28;20413;-56
2022/10/26 04:21:34;;;;;;;145.93;138.23;;;11.10;99.90;;;;;;5047187;28;20681;-58
2022/10/26 04:24:01;;;;;;;149.25;141.20;;;11.10;99.90;;;;;;5049797;28;20382;-58
2022/10/26 04:26:27;;;;;;;152.02;143.82;;;11.20;99.90;;;;;;5050072;28;20406;-56
2022/10/26 04:28:52;;;;;;;166.50;157.73;;;11.20;99.90;;;;;;5049905;28;20576;-58
2022/10/26 04:31:18;;;;;;;167.73;158.67;;;11.20;99.90;;;;;;5050035;28;20393;-58
2022/10/26 04:33:44;;;;;;;169.57;160.65;;;11.20;99.90;;;;;;5048515;28;20420;-58
2022/10/26 04:36:09;;;;;;;166.43;157.63;;;11.20;99.90;;;;;;5055360;28;20411;-57
2022/10/26 04:38:35;;;;;;;169.32;160.27;;;11.20;99.90;;;;;;5051275;28;20388;-56
2022/10/26 04:41:01;;;;;;;162.35;153.55;;;11.20;99.90;;;;;;5050495;28;20391;-57
2022/10/26 04:43:26;;;;;;;177.60;168.00;;;11.20;99.90;;;;;;5067330;28;20399;-55
2022/10/26 04:45:56;;;;;;;178.60;168.93;;;11.20;99.90;;;;;;5049880;28;20414;-58
2022/10/26 04:48:22;;;;;;;162.55;153.85;;;11.20;99.90;;;;;;5048094;28;20554;-57
2022/10/26 04:50:48;;;;;;;174.45;164.80;;;11.20;99.90;;;;;;5046961;28;20384;-58
2022/10/26 04:53:14;;;;;;;174.10;164.93;;;11.10;99.90;;;;;;5046907;28;20908;-58
2022/10/26 04:55:40;;;;;;;157.77;149.15;;;11.20;99.90;;;;;;5046178;28;20862;-56
2022/10/26 04:58:06;;;;;;;170.77;161.53;;;11.10;99.90;;;;;;5044622;28;20400;-58
2022/10/26 05:00:32;;;;;;;161.73;153.13;;;11.10;99.90;;;;;;5043430;28;20383;-58
2022/10/26 05:03:02;;;;;;;153.10;144.77;;;11.10;99.90;;;;;;5060666;28;20387;-55
2022/10/26 05:05:30;;;;;;;166.10;157.25;;;11.10;99.90;;;;;;5060868;28;20663;-58
2022/10/26 05:07:56;;;;;;;157.50;149.13;;;11.10;99.90;;;;;;5040856;28;20398;-58
2022/10/26 05:10:22;;;;;;;162.02;153.45;;;11.10;99.90;;;;;;5059499;28;20384;-56
2022/10/26 05:12:56;;;;;;;164.60;155.50;;;11.10;99.90;;;;;;5044960;28;20695;-58
2022/10/26 05:15:22;;;;;;;162.30;153.77;;;11.00;99.90;;;;;;5043699;28;20540;-57
2022/10/26 05:17:58;;;;;;;161.53;153.00;;;11.10;99.90;;;;;;5061177;28;20659;-58
2022/10/26 05:20:28;;;;;;;155.40;147.40;;;11.00;99.90;;;;;;5043657;28;20380;-58
2022/10/26 05:22:55;;;;;;;150.85;142.77;;;11.00;99.90;;;;;;5044473;28;20379;-58
2022/10/26 05:25:21;;;;;;;173.63;164.07;;;11.00;99.90;;;;;;5044198;28;20398;-57
2022/10/26 05:27:46;;;;;;;141.15;133.68;;;10.90;99.90;;;;;;5043900;28;20668;-55
2022/10/26 05:30:12;;;;;;;132.03;124.87;;;10.90;99.90;;;;;;5043970;28;20616;-56
2022/10/26 05:32:38;;;;;;;131.77;124.60;;;10.90;99.90;;;;;;5062213;28;20395;-58
2022/10/26 05:35:04;;;;;;;132.67;125.47;;;10.90;99.90;;;;;;5045200;28;20780;-57
2022/10/26 05:37:30;;;;;;;132.68;125.60;;;10.90;99.90;;;;;;5044493;28;20574;-55
2022/10/26 05:39:55;;;;;;;141.57;133.80;;;11.00;99.90;;;;;;5061307;28;20824;-54
2022/10/26 05:42:21;;;;;;;141.37;133.67;;;11.00;99.90;;;;;;5043499;28;20434;-58
2022/10/26 05:44:50;;;;;;;126.15;119.45;;;10.90;99.90;;;;;;5062703;28;20376;-58
2022/10/26 05:47:15;;;;;;;124.27;117.33;;;10.80;99.90;;;;;;5043255;28;20577;-57
2022/10/26 05:49:41;;;;;;;65.60;61.37;;;10.80;99.90;;;;;;5042830;28;20707;-58
2022/10/26 05:52:06;;;;;;;68.30;64.18;;;10.80;99.90;;;;;;5042951;28;20392;-52
2022/10/26 05:54:32;;;;;;;65.35;61.15;;;10.90;99.90;;;;;;5044222;28;20739;-57
2022/10/26 05:56:58;;;;;;;69.23;64.97;;;10.90;99.90;;;;;;5042905;28;20505;-56
2022/10/26 05:59:24;;;;;;;69.25;64.95;;;10.90;99.90;;;;;;5040318;28;20391;-58
2022/10/26 06:01:52;;;;;;;73.33;68.93;;;10.90;99.90;;;;;;5038919;28;20460;-57
2022/10/26 06:04:37;;;;;;;76.28;71.88;;;10.90;99.90;;;;;;5037404;28;20383;-56
2022/10/26 06:07:09;;;;;;;68.57;64.68;;;10.90;99.90;;;;;;5037619;28;20395;-56
2022/10/26 06:09:35;;;;;;;78.20;73.75;;;10.90;99.90;;;;;;5056408;28;20523;-56
2022/10/26 06:12:01;;;;;;;74.88;70.43;;;10.90;99.90;;;;;;5036723;28;20422;-58
2022/10/26 06:14:27;;;;;;;77.25;72.63;;;10.90;99.90;;;;;;5034174;28;20928;-56
2022/10/26 06:17:17;;;;;;;75.78;71.38;;;10.90;99.90;;;;;;5034392;28;20500;-55
2022/10/26 06:20:09;;;;;;;71.85;67.55;;;10.90;99.90;;;;;;5036646;28;20376;-57
2022/10/26 06:23:01;;;;;;;71.97;67.78;;;10.90;99.90;;;;;;5038920;28;20612;-57
2022/10/26 06:25:44;;;;;;;74.15;70.00;;;10.90;99.90;;;;;;5038886;28;20387;-55
2022/10/26 06:28:29;;;;;;;73.47;69.18;;;10.90;99.90;;;;;;5038974;28;20477;-57
2022/10/26 06:30:56;;;;;;;66.25;62.47;;;10.90;99.90;;;;;;5037619;28;20387;-57
2022/10/26 06:33:24;;;;;;;65.88;62.28;;;10.90;99.90;;;;;;5035785;28;20376;-56
2022/10/26 06:36:02;;;;;;;73.88;69.47;;;11.00;99.90;;;;;;5037217;28;20892;-55
2022/10/26 06:38:30;;;;;;;73.65;69.18;;;11.10;99.90;;;;;;5036126;28;20902;-58
2022/10/26 06:40:56;;;;;;;69.88;65.78;;;11.10;99.90;;;;;;5052631;28;20431;-58
2022/10/26 06:43:34;;;;;;;71.65;67.35;;;11.10;99.90;;;;;;5033623;28;20460;-57
2022/10/26 06:46:24;;;;;;;73.13;68.85;;;11.00;99.90;;;;;;5031991;28;20407;-57
2022/10/26 06:49:08;;;;;;;66.90;63.03;;;11.00;99.90;;;;;;5031833;28;20449;-59
2022/10/26 06:51:44;;;;;;;63.97;60.17;;;11.00;99.90;;;;;;5035597;28;20890;-58
2022/10/26 06:54:53;;;;;;;75.97;71.55;;;11.10;99.90;;;;;;5040606;28;20512;-57
2022/10/26 06:57:21;;;;;;;73.50;69.30;;;11.10;99.90;;;;;;5038364;28;20876;-59
2022/10/26 06:59:55;;;;;;;71.25;67.13;;;11.10;99.90;;;;;;5054133;28;20567;-57
2022/10/26 07:02:21;;;;;;;72.80;68.57;;;11.10;99.90;;;;;;5033986;28;20387;-58
2022/10/26 07:04:47;;;;;;;67.07;63.17;;;11.00;99.90;;;;;;5034690;28;20733;-59
2022/10/26 07:07:24;;;;;;;69.93;65.70;;;11.00;99.90;;;;;;5035905;28;20415;-57
2022/10/26 07:09:50;;;;;;;71.05;67.00;;;11.00;99.90;;;;;;5055798;28;20383;-59
2022/10/26 07:12:16;;;;;;;81.95;77.28;;;11.00;99.90;;;;;;5034927;28;20408;-58
2022/10/26 07:14:42;;;;;;;78.75;74.35;;;11.10;99.90;;;;;;5036282;28;20642;-59
2022/10/26 07:17:08;;;;;;;82.30;77.80;;;11.10;99.90;;;;;;5034452;28;20541;-58
2022/10/26 07:19:34;;;;;;;82.13;77.50;;;11.10;99.90;;;;;;5030087;28;20456;-57
2022/10/26 07:22:00;;;;;;;79.57;75.17;;;11.10;99.90;;;;;;5032349;28;20395;-56
2022/10/26 07:24:26;;;;;;;73.87;69.57;;;11.10;99.90;;;;;;5053431;28;20388;-58
2022/10/26 07:26:56;;;;;;;76.28;71.97;;;11.20;99.90;;;;;;5035525;28;20403;-56
2022/10/26 07:29:23;;;;;;;80.85;76.45;;;11.10;99.90;;;;;;5033607;28;20648;-58
2022/10/26 07:31:50;;;;;;;79.82;75.13;;;11.20;99.90;;;;;;5036753;28;20379;-59
2022/10/26 07:34:16;;;;;;;79.63;75.07;;;11.20;99.90;;;;;;5034270;28;20383;-59
2022/10/26 07:36:41;;;;;;;78.77;74.30;;;11.20;99.90;;;;;;5031433;28;20416;-57
2022/10/26 07:39:07;;;;;;;85.68;80.65;;;11.20;99.90;;;;;;5050322;28;20618;-61
2022/10/26 07:41:33;;;;;;;84.85;79.63;;;11.20;99.90;;;;;;5033869;28;20603;-56
2022/10/26 07:43:59;;;;;;;92.65;86.38;;;11.10;99.90;;;;;;5034640;28;20760;-57
2022/10/26 07:46:25;;;;;;;134.82;122.40;;;11.10;99.90;;;;;;5034884;28;20415;-54
2022/10/26 07:48:51;;;;;;;125.05;113.28;;;11.20;99.90;;;;;;5033877;28;20652;-57
2022/10/26 07:51:17;;;;;;;103.60;95.23;;;11.20;99.90;;;;;;5031535;28;20806;-58
2022/10/26 07:53:43;;;;;;;82.57;77.17;;;11.30;99.90;;;;;;5052506;28;20603;-59
2022/10/26 07:56:09;;;;;;;76.97;72.40;;;11.30;99.90;;;;;;5052580;28;20387;-58
2022/10/26 07:58:35;;;;;;;85.20;80.45;;;11.30;99.90;;;;;;5037164;28;20551;-58
2022/10/26 08:01:12;;;;;;;94.53;89.37;;;11.40;99.90;;;;;;5037139;28;20383;-58
2022/10/26 08:03:37;;;;;;;91.60;86.07;;;11.40;99.90;;;;;;5035920;28;20388;-58
2022/10/26 08:06:03;;;;;;;94.07;88.90;;;11.50;99.90;;;;;;5052692;28;20426;-54
2022/10/26 08:08:30;;;;;;;97.95;92.45;;;11.50;99.90;;;;;;5038429;28;20379;-57
2022/10/26 08:10:56;;;;;;;98.30;93.00;;;11.50;99.90;;;;;;5036647;28;20790;-56
2022/10/26 08:13:22;;;;;;;96.45;91.32;;;11.50;99.90;;;;;;5034219;28;20502;-59
2022/10/26 08:15:47;;;;;;;100.47;94.87;;;11.60;99.90;;;;;;5054259;28;20741;-57
2022/10/26 08:18:13;;;;;;;99.43;93.93;;;11.70;99.90;;;;;;5054319;28;20639;-58
2022/10/26 08:20:40;;;;;;;93.47;88.38;;;11.70;99.90;;;;;;5053461;28;20434;-58
2022/10/26 08:23:07;;;;;;;92.70;87.65;;;11.70;99.90;;;;;;5055193;28;20387;-58
2022/10/26 08:25:33;;;;;;;126.30;116.90;;;11.70;99.90;;;;;;5036882;28;20473;-56
2022/10/26 08:28:02;;;;;;;103.10;96.88;;;11.70;99.90;;;;;;5038647;28;20388;-58
2022/10/26 08:30:32;;;;;;;99.28;93.43;;;11.80;99.90;;;;;;5039391;28;20388;-54
2022/10/26 08:33:03;;;;;;;93.07;88.00;;;11.80;99.90;;;;;;5054208;28;20394;-57
2022/10/26 08:35:29;;;;;;;99.03;93.63;;;11.80;99.90;;;;;;5052652;28;20471;-57
2022/10/26 08:37:55;;;;;;;98.95;93.55;;;11.80;99.90;;;;;;5053230;28;20474;-56
2022/10/26 08:40:29;;;;;;;98.27;92.97;;;11.80;99.90;;;;;;5034512;28;20663;-56
2022/10/26 08:43:04;;;;;;;93.63;88.67;;;11.90;99.90;;;;;;5053175;28;20491;-58
2022/10/26 08:45:37;;;;;;;105.25;99.63;;;12.00;99.90;;;;;;5042827;28;20388;-58
2022/10/26 08:48:11;;;;;;;102.00;96.30;;;12.00;99.90;;;;;;5044649;28;20380;-57
2022/10/26 08:50:51;;;;;;;108.30;102.55;;;12.10;99.90;;;;;;5047539;28;20372;-53
2022/10/26 08:53:30;;;;;;;111.73;106.00;;;12.20;99.90;;;;;;5046841;28;20490;-58
2022/10/26 08:56:02;;;;;;;111.27;105.27;;;12.20;99.90;;;;;;5047719;28;20426;-57
2022/10/26 08:58:35;;;;;;;111.07;104.95;;;12.10;99.90;;;;;;5047537;28;20400;-58
2022/10/26 09:01:02;;;;;;;105.15;99.70;;;12.10;99.90;;;;;;5048261;28;20457;-58
2022/10/26 09:03:27;;;;;;;109.07;103.28;;;12.20;99.90;;;;;;5049866;28;20810;-58
2022/10/26 09:06:13;;;;;;;111.17;105.10;;;12.20;99.90;;;;;;5049954;28;20692;-55
2022/10/26 09:09:22;;;;;;;102.13;96.20;;;12.40;99.90;;;;;;5049054;28;20391;-55
2022/10/26 09:12:45;;;;;;;114.88;108.78;;;12.90;99.90;;;;;;5000103;28;20399;-51
2022/10/26 09:15:27;;;;;;;122.97;116.28;;;13.20;99.90;;;;;;4961106;28;20536;-52
2022/10/26 09:18:27;;;;;;;139.85;132.70;;;13.50;99.90;;;;;;4945649;28;20408;-59
2022/10/26 09:21:02;;;;;;;121.38;114.57;;;13.60;99.90;;;;;;5042942;28;20457;-57
2022/10/26 09:23:39;;;;;;;122.87;116.27;;;13.60;99.90;;;;;;5060729;28;20549;-59
2022/10/26 09:26:18;;;;;;;110.95;105.05;;;13.60;99.90;;;;;;5043993;28;20799;-58
2022/10/26 09:28:48;;;;;;;111.95;106.05;;;13.50;99.90;;;;;;5063688;28;20453;-60
2022/10/26 09:31:15;;;;;;;97.20;91.82;;;13.50;99.90;;;;;;5041882;28;20531;-59
2022/10/26 09:33:41;;;;;;;98.25;92.95;;;13.50;99.90;;;;;;5041000;28;20451;-56
2022/10/26 09:36:16;;;;;;;101.53;95.77;;;13.50;99.90;;;;;;5056479;28;20415;-59
2022/10/26 09:39:12;;;;;;;95.88;90.38;;;13.50;99.90;;;;;;5054292;28;20461;-60
2022/10/26 09:41:50;;;;;;;94.80;89.70;;;13.50;99.90;;;;;;5040354;28;20449;-59
2022/10/26 09:44:30;;;;;;;97.03;91.82;;;13.60;99.90;;;;;;5040507;28;20464;-56
2022/10/26 09:47:26;;;;;;;101.60;95.90;;;13.60;99.90;;;;;;5041702;28;20400;-59
2022/10/26 09:49:57;;;;;;;104.72;99.03;;;13.70;99.90;;;;;;5044351;28;20387;-59
2022/10/26 09:52:23;;;;;;;85.72;80.97;;;13.90;99.90;;;;;;5061485;28;21052;-59
2022/10/26 09:54:51;;;;;;;82.20;77.70;;;14.20;99.90;;;;;;5045263;28;20371;-59
2022/10/26 09:57:19;;;;;;;95.45;90.22;;;14.50;99.90;;;;;;5045714;28;20406;-57
2022/10/26 09:59:54;;;;;;;114.00;107.88;;;14.70;99.90;;;;;;5046232;28;20394;-58
2022/10/26 10:02:43;;;;;;;139.85;132.52;;;15.00;99.90;;;;;;5061378;28;20760;-59
2022/10/26 10:05:29;;;;;;;150.57;142.70;;;15.30;99.90;;;;;;5044272;28;20388;-59
2022/10/26 10:08:26;;;;;;;149.18;141.65;;;15.50;99.90;;;;;;5040898;28;20407;-59
2022/10/26 10:11:08;;;;;;;147.98;140.45;;;15.60;99.90;;;;;;5043504;28;20376;-55
2022/10/26 10:13:39;;;;;;;161.33;153.17;;;15.70;99.90;;;;;;5044771;28;20391;-60
2022/10/26 10:16:22;;;;;;;167.97;159.00;;;15.80;99.90;;;;;;5044533;28;20391;-60
2022/10/26 10:19:01;;;;;;;175.32;166.18;;;15.80;99.90;;;;;;5044225;28;20395;-59
2022/10/26 10:21:47;;;;;;;173.68;164.43;;;15.80;99.90;;;;;;5060855;28;20383;-59
2022/10/26 10:24:25;;;;;;;164.93;156.02;;;16.00;99.90;;;;;;5059435;28;20403;-60
2022/10/26 10:27:14;;;;;;;165.88;157.05;;;16.20;99.90;;;;;;5064510;28;20395;-62
2022/10/26 10:29:42;;;;;;;163.10;154.52;;;16.30;99.90;;;;;;5049666;28;20367;-60
2022/10/26 10:32:23;;;;;;;147.97;139.97;;;16.40;99.90;;;;;;5066874;28;20467;-59
2022/10/26 10:34:57;;;;;;;144.07;136.47;;;16.50;99.90;;;;;;5049051;28;20375;-58
2022/10/26 10:37:35;;;;;;;127.00;120.00;;;16.70;99.90;;;;;;5047306;28;20436;-58
2022/10/26 10:40:04;;;;;;;129.32;122.53;;;16.60;99.90;;;;;;5044721;28;20827;-57
2022/10/26 10:42:32;;;;;;;132.40;125.07;;;16.40;99.90;;;;;;5043737;28;20495;-59
2022/10/26 10:45:02;;;;;;;133.18;125.82;;;16.30;99.90;;;;;;5037699;28;20840;-56
2022/10/26 10:47:35;;;;;;;115.33;109.17;;;16.30;99.90;;;;;;5044348;28;20424;-60
2022/10/26 10:50:13;;;;;;;117.68;111.13;;;16.40;99.90;;;;;;5043787;28;20892;-59
2022/10/26 10:52:38;;;;;;;119.38;112.95;;;16.50;99.90;;;;;;5042127;28;20385;-58
2022/10/26 10:55:10;;;;;;;132.95;125.90;;;16.50;99.90;;;;;;5045189;28;20392;-57
2022/10/26 10:57:55;;;;;;;125.13;118.30;;;16.70;99.90;;;;;;5045310;28;20847;-54
2022/10/26 11:00:21;;;;;;;115.95;109.38;;;16.90;99.90;;;;;;5045698;28;20395;-59
2022/10/26 11:03:21;;;;;;;106.57;100.82;;;17.00;99.90;;;;;;5044529;28;20397;-58
2022/10/26 11:05:58;;;;;;;135.30;128.00;;;17.10;99.90;;;;;;5043024;28;20451;-59
2022/10/26 11:08:49;;;;;;;106.68;101.07;;;17.30;99.90;;;;;;5041961;28;20752;-60
2022/10/26 11:11:34;;;;;;;104.03;98.45;;;17.50;99.90;;;;;;5042678;28;20385;-58
2022/10/26 11:14:24;;;;;;;84.63;80.03;;;17.80;99.90;;;;;;5038918;28;21107;-59
2022/10/26 11:17:10;;;;;;;93.38;88.53;;;18.00;99.90;;;;;;5040437;28;20389;-57
2022/10/26 11:19:53;;;;;;;86.77;82.07;;;18.10;99.90;;;;;;5038371;28;20385;-59
2022/10/26 11:22:37;;;;;;;72.00;67.80;;;18.00;99.90;;;;;;5037964;28;20470;-60
2022/10/26 11:25:16;;;;;;;82.10;77.43;;;17.90;99.90;;;;;;5040882;28;20381;-60
2022/10/26 11:27:56;;;;;;;82.60;78.10;;;17.80;99.90;;;;;;5041188;28;20425;-59
2022/10/26 11:30:26;;;;;;;91.70;86.82;;;17.80;99.90;;;;;;5040985;28;20869;-57
2022/10/26 11:33:22;;;;;;;95.10;89.82;;;17.70;99.90;;;;;;5042290;28;20377;-59
2022/10/26 11:36:05;;;;;;;90.75;85.68;;;17.90;99.90;;;;;;5044410;28;20399;-55
2022/10/26 11:38:58;;;;;;;87.70;82.90;;;18.00;99.90;;;;;;5042959;28;20383;-60
2022/10/26 11:41:43;;;;;;;80.97;76.30;;;18.20;99.90;;;;;;5042753;28;21178;-59
2022/10/26 11:44:19;;;;;;;93.65;88.57;;;18.20;99.90;;;;;;5063410;28;20430;-60
2022/10/26 11:46:53;;;;;;;75.75;71.82;;;18.50;99.90;;;;;;5064172;28;20502;-59
2022/10/26 11:49:39;;;;;;;59.80;56.60;;;18.70;99.90;;;;;;5060854;28;20394;-55
2022/10/26 11:52:16;;;;;;;59.95;56.08;;;18.70;99.90;;;;;;5041077;28;20478;-60
2022/10/26 11:54:46;;;;;;;62.65;59.13;;;18.70;99.90;;;;;;5036284;28;20384;-58
2022/10/26 11:57:15;;;;;;;61.50;58.03;;;18.80;99.90;;;;;;5046659;28;20660;-55
2022/10/26 12:00:13;;;;;;;64.97;61.38;;;19.20;99.90;;;;;;5027599;28;20400;-59
2022/10/26 12:02:48;;;;;;;58.95;55.78;;;19.40;99.90;;;;;;5053586;28;20379;-60
2022/10/26 12:05:14;;;;;;;72.78;68.88;;;19.80;99.90;;;;;;5029489;28;20924;-59
2022/10/26 12:07:54;;;;;;;69.47;65.75;;;20.10;99.90;;;;;;5028733;28;20465;-57
2022/10/26 12:10:30;;;;;;;72.57;68.57;;;20.40;99.90;;;;;;5030950;28;20754;-59
2022/10/26 12:13:03;;;;;;;84.30;79.85;;;20.20;99.90;;;;;;5038650;28;20414;-60
2022/10/26 12:15:40;;;;;;;91.80;86.93;;;20.50;99.90;;;;;;5037170;28;20391;-58
2022/10/26 12:18:19;;;;;;;83.35;78.93;;;20.90;99.90;;;;;;5055232;28;20375;-60
2022/10/26 12:20:45;;;;;;;84.35;79.75;;;21.30;99.90;;;;;;5042011;28;20667;-58
2022/10/26 12:23:11;;;;;;;85.90;81.30;;;21.60;99.90;;;;;;5041267;28;20399;-60
2022/10/26 12:25:37;;;;;;;95.15;89.95;;;21.70;99.90;;;;;;5037471;28;20498;-59
2022/10/26 12:28:04;;;;;;;101.60;95.95;;;21.20;99.90;;;;;;5033220;28;20531;-58
2022/10/26 12:30:31;;;;;;;96.60;91.25;;;21.30;99.90;;;;;;5030620;28;20721;-60
2022/10/26 12:33:04;;;;;;;99.80;94.32;;;21.60;99.90;;;;;;5030977;28;20493;-60
2022/10/26 12:35:35;;;;;;;140.10;131.93;;;22.10;99.90;;;;;;5054175;28;20391;-60
2022/10/26 12:38:22;;;;;;;119.05;112.07;;;22.10;99.90;;;;;;5037279;28;20406;-57
2022/10/26 12:41:12;;;;;;;118.38;111.50;;;21.80;99.90;;;;;;5021929;28;20395;-60
2022/10/26 12:43:39;;;;;;;127.63;120.23;;;22.30;99.90;;;;;;5037536;28;20583;-58
2022/10/26 12:46:11;;;;;;;146.70;138.02;;;22.60;99.90;;;;;;5059131;28;20411;-60